Mariner A — 9HVA7 — position and weather

sailwx.info

Track history (hours):
 
Tides and Currents Weather Stations Pressure Air Temp Water Temp Dewpoint Dewpoint Depression Visibility Wind Speed Wind Dir Waves Ship Positions

Mariner A

Last reported at 2016-Sep-27 23:33 UTC. Time now 2016-Sep-30 06:45 UTC.
Position N 40°54' E 028°48'.

Length 176 m; draft 9.9 m.

Type: Tanker. MMSI: 215817000.

Date/timePositionNaut miles runAvg speedWind from/ knotsBaromVisibWave heightAir tempDewpointWater temp
2016-Sep-27 23:33N 40°54' E 028°48'435 9.6
2016-Sep-26 02:05N 44°26' E 037°25'712.0
2016-Sep-26 01:32N 44°29' E 037°33'1111.7
2016-Sep-26 00:34N 44°35' E 037°46'8 2.6
2016-Sep-25 21:31N 44°43' E 037°50'0 0.0
2016-Sep-25 17:25N 44°43' E 037°50'0 0.0
2016-Sep-25 16:31N 44°43' E 037°50'0 0.0
2016-Sep-25 15:31N 44°43' E 037°50'0 0.0
2016-Sep-25 14:31N 44°43' E 037°50'0 0.0
2016-Sep-25 12:31N 44°43' E 037°50'0 0.0
2016-Sep-25 11:31N 44°43' E 037°50'0 0.0
2016-Sep-25 10:31N 44°43' E 037°50'0 0.0
2016-Sep-25 09:31N 44°43' E 037°50'0 0.0
2016-Sep-25 07:31N 44°43' E 037°50'0 0.0
2016-Sep-25 04:31N 44°43' E 037°50'0 0.0
2016-Sep-25 00:30N 44°43' E 037°50'0 0.0
2016-Sep-24 22:30N 44°43' E 037°50'0 0.0
2016-Sep-24 21:24N 44°43' E 037°50'0 0.0
2016-Sep-24 19:30N 44°43' E 037°50'0 0.0
2016-Sep-24 18:30N 44°43' E 037°50'0 0.0
2016-Sep-24 10:30N 44°43' E 037°50'0 0.0
2016-Sep-24 09:30N 44°43' E 037°50'0 0.0
2016-Sep-24 03:30N 44°43' E 037°50'0 0.0
2016-Sep-24 02:30N 44°43' E 037°50'0 0.0
2016-Sep-24 01:30N 44°43' E 037°50'0 0.0
2016-Sep-24 00:30N 44°43' E 037°50'0 0.0
2016-Sep-23 19:30N 44°43' E 037°50'0 0.0
2016-Sep-23 17:29N 44°43' E 037°50'1 1.0
2016-Sep-23 16:33N 44°42' E 037°50'9 9.4
2016-Sep-23 15:33N 44°33' E 037°47'7 3.7
2016-Sep-23 13:33N 44°25' E 037°46'11 2.5
2016-Sep-23 09:06N 44°27' E 037°30'2 0.6
2016-Sep-23 06:33N 44°25' E 037°31'2 0.9
2016-Sep-23 04:33N 44°27' E 037°31'1 0.3
2016-Sep-23 00:32N 44°26' E 037°32'0 0.3
2016-Sep-22 23:24N 44°26' E 037°32'4 1.2
2016-Sep-22 20:30N 44°26' E 037°37'  
2016-Sep-19 00:28N 40°59' E 028°60'11 2.2
2016-Sep-18 19:33N 40°49' E 028°56'2 0.5
2016-Sep-18 15:30N 40°48' E 028°58'0 0.2
2016-Sep-18 14:33N 40°48' E 028°58'5 1.3
2016-Sep-18 10:33N 40°51' E 028°53'1 0.5
2016-Sep-18 09:33N 40°50' E 028°53'  
Track history (hours):
 
Tides and Currents Weather Stations Pressure Air Temp Water Temp Dewpoint Dewpoint Depression Visibility Wind Speed Wind Dir Waves Ship Positions

Mariner A

Last reported at 2016-Sep-27 23:33 UTC. Time now 2016-Sep-30 06:45 UTC.
Position N 40°54' E 028°48'.

Length 176 m; draft 9.9 m.

Type: Tanker. MMSI: 215817000.

Date/timePositionNaut miles runAvg speedWind from/ knotsBaromVisibWave heightAir tempDewpointWater temp
2016-Sep-27 23:33N 40°54' E 028°48'435 9.6
2016-Sep-26 02:05N 44°26' E 037°25'712.0
2016-Sep-26 01:32N 44°29' E 037°33'1111.7
2016-Sep-26 00:34N 44°35' E 037°46'8 2.6
2016-Sep-25 21:31N 44°43' E 037°50'0 0.0
2016-Sep-25 17:25N 44°43' E 037°50'0 0.0
2016-Sep-25 16:31N 44°43' E 037°50'0 0.0
2016-Sep-25 15:31N 44°43' E 037°50'0 0.0
2016-Sep-25 14:31N 44°43' E 037°50'0 0.0
2016-Sep-25 12:31N 44°43' E 037°50'0 0.0
2016-Sep-25 11:31N 44°43' E 037°50'0 0.0
2016-Sep-25 10:31N 44°43' E 037°50'0 0.0
2016-Sep-25 09:31N 44°43' E 037°50'0 0.0
2016-Sep-25 07:31N 44°43' E 037°50'0 0.0
2016-Sep-25 04:31N 44°43' E 037°50'0 0.0
2016-Sep-25 00:30N 44°43' E 037°50'0 0.0
2016-Sep-24 22:30N 44°43' E 037°50'0 0.0
2016-Sep-24 21:24N 44°43' E 037°50'0 0.0
2016-Sep-24 19:30N 44°43' E 037°50'0 0.0
2016-Sep-24 18:30N 44°43' E 037°50'0 0.0
2016-Sep-24 10:30N 44°43' E 037°50'0 0.0
2016-Sep-24 09:30N 44°43' E 037°50'0 0.0
2016-Sep-24 03:30N 44°43' E 037°50'0 0.0
2016-Sep-24 02:30N 44°43' E 037°50'0 0.0
2016-Sep-24 01:30N 44°43' E 037°50'0 0.0
2016-Sep-24 00:30N 44°43' E 037°50'0 0.0
2016-Sep-23 19:30N 44°43' E 037°50'0 0.0
2016-Sep-23 17:29N 44°43' E 037°50'1 1.0
2016-Sep-23 16:33N 44°42' E 037°50'9 9.4
2016-Sep-23 15:33N 44°33' E 037°47'7 3.7
2016-Sep-23 13:33N 44°25' E 037°46'11 2.5
2016-Sep-23 09:06N 44°27' E 037°30'2 0.6
2016-Sep-23 06:33N 44°25' E 037°31'2 0.9
2016-Sep-23 04:33N 44°27' E 037°31'1 0.3
2016-Sep-23 00:32N 44°26' E 037°32'0 0.3
2016-Sep-22 23:24N 44°26' E 037°32'4 1.2
2016-Sep-22 20:30N 44°26' E 037°37'  
2016-Sep-19 00:28N 40°59' E 028°60'11 2.2
2016-Sep-18 19:33N 40°49' E 028°56'2 0.5
2016-Sep-18 15:30N 40°48' E 028°58'0 0.2
2016-Sep-18 14:33N 40°48' E 028°58'5 1.3
2016-Sep-18 10:33N 40°51' E 028°53'1 0.5
2016-Sep-18 09:33N 40°50' E 028°53'  

Dump ship's entire track history